sensor_id;sensor_type;location;lat;lon;timestamp;temperature;humidity
51007;DHT22;37034;47.886;-3.904;2023-07-29T00:01:34;21.50;96.20
51007;DHT22;37034;47.886;-3.904;2023-07-29T00:04:00;21.50;96.20
51007;DHT22;37034;47.886;-3.904;2023-07-29T00:06:26;21.50;96.20
51007;DHT22;37034;47.886;-3.904;2023-07-29T00:08:52;21.50;96.30
51007;DHT22;37034;47.886;-3.904;2023-07-29T00:11:18;21.50;96.20
51007;DHT22;37034;47.886;-3.904;2023-07-29T00:13:43;21.50;96.20
51007;DHT22;37034;47.886;-3.904;2023-07-29T00:16:09;21.50;96.20
51007;DHT22;37034;47.886;-3.904;2023-07-29T00:18:35;21.50;96.30
51007;DHT22;37034;47.886;-3.904;2023-07-29T00:21:01;21.50;96.40
51007;DHT22;37034;47.886;-3.904;2023-07-29T00:23:27;21.50;96.40
51007;DHT22;37034;47.886;-3.904;2023-07-29T00:25:53;21.50;96.30
51007;DHT22;37034;47.886;-3.904;2023-07-29T00:28:18;21.50;96.40
51007;DHT22;37034;47.886;-3.904;2023-07-29T00:30:44;21.50;96.30
51007;DHT22;37034;47.886;-3.904;2023-07-29T00:33:09;21.50;96.30
51007;DHT22;37034;47.886;-3.904;2023-07-29T00:35:35;21.50;96.30
51007;DHT22;37034;47.886;-3.904;2023-07-29T00:38:01;21.50;96.30
51007;DHT22;37034;47.886;-3.904;2023-07-29T00:40:28;21.40;96.40
51007;DHT22;37034;47.886;-3.904;2023-07-29T00:42:54;21.40;96.40
51007;DHT22;37034;47.886;-3.904;2023-07-29T00:45:20;21.40;96.40
51007;DHT22;37034;47.886;-3.904;2023-07-29T00:47:46;21.40;96.40
51007;DHT22;37034;47.886;-3.904;2023-07-29T00:50:12;21.40;96.40
51007;DHT22;37034;47.886;-3.904;2023-07-29T00:52:38;21.50;96.60
51007;DHT22;37034;47.886;-3.904;2023-07-29T00:55:05;21.40;96.30
51007;DHT22;37034;47.886;-3.904;2023-07-29T00:57:32;21.40;96.40
51007;DHT22;37034;47.886;-3.904;2023-07-29T00:59:58;21.40;96.40
51007;DHT22;37034;47.886;-3.904;2023-07-29T01:02:24;21.50;96.60
51007;DHT22;37034;47.886;-3.904;2023-07-29T01:04:58;21.40;96.30
51007;DHT22;37034;47.886;-3.904;2023-07-29T01:08:05;21.40;96.60
51007;DHT22;37034;47.886;-3.904;2023-07-29T01:10:58;21.30;96.60
51007;DHT22;37034;47.886;-3.904;2023-07-29T01:13:41;21.30;96.60
51007;DHT22;37034;47.886;-3.904;2023-07-29T01:16:31;21.30;96.50
51007;DHT22;37034;47.886;-3.904;2023-07-29T01:19:02;21.30;96.90
51007;DHT22;37034;47.886;-3.904;2023-07-29T01:21:30;21.40;96.60
51007;DHT22;37034;47.886;-3.904;2023-07-29T01:23:59;21.40;96.60
51007;DHT22;37034;47.886;-3.904;2023-07-29T01:26:25;21.40;96.60
51007;DHT22;37034;47.886;-3.904;2023-07-29T01:28:51;21.50;96.60
51007;DHT22;37034;47.886;-3.904;2023-07-29T01:34:10;21.50;96.70
51007;DHT22;37034;47.886;-3.904;2023-07-29T01:36:41;21.40;96.50
51007;DHT22;37034;47.886;-3.904;2023-07-29T01:39:07;21.40;96.60
51007;DHT22;37034;47.886;-3.904;2023-07-29T01:41:34;21.40;96.60
51007;DHT22;37034;47.886;-3.904;2023-07-29T01:44:01;21.40;96.60
51007;DHT22;37034;47.886;-3.904;2023-07-29T01:46:27;21.40;96.60
51007;DHT22;37034;47.886;-3.904;2023-07-29T01:48:52;21.40;96.60
51007;DHT22;37034;47.886;-3.904;2023-07-29T01:51:19;21.40;96.60
51007;DHT22;37034;47.886;-3.904;2023-07-29T01:53:46;21.40;96.60
51007;DHT22;37034;47.886;-3.904;2023-07-29T01:56:12;21.30;96.60
51007;DHT22;37034;47.886;-3.904;2023-07-29T01:58:37;21.30;96.60
51007;DHT22;37034;47.886;-3.904;2023-07-29T02:01:03;21.30;96.70
51007;DHT22;37034;47.886;-3.904;2023-07-29T02:03:29;21.30;96.70
51007;DHT22;37034;47.886;-3.904;2023-07-29T02:05:55;21.30;96.70
51007;DHT22;37034;47.886;-3.904;2023-07-29T02:08:20;21.30;96.70
51007;DHT22;37034;47.886;-3.904;2023-07-29T02:10:46;21.30;96.70
51007;DHT22;37034;47.886;-3.904;2023-07-29T02:13:12;21.30;96.70
51007;DHT22;37034;47.886;-3.904;2023-07-29T02:15:38;21.30;96.70
51007;DHT22;37034;47.886;-3.904;2023-07-29T02:18:03;21.20;96.80
51007;DHT22;37034;47.886;-3.904;2023-07-29T02:20:29;21.20;96.80
51007;DHT22;37034;47.886;-3.904;2023-07-29T02:22:55;21.20;96.80
51007;DHT22;37034;47.886;-3.904;2023-07-29T02:25:20;21.20;96.80
51007;DHT22;37034;47.886;-3.904;2023-07-29T02:27:46;21.20;96.70
51007;DHT22;37034;47.886;-3.904;2023-07-29T02:30:11;21.20;96.70
51007;DHT22;37034;47.886;-3.904;2023-07-29T02:32:38;21.20;96.80
51007;DHT22;37034;47.886;-3.904;2023-07-29T02:35:04;21.20;96.80
51007;DHT22;37034;47.886;-3.904;2023-07-29T02:37:30;21.20;96.80
51007;DHT22;37034;47.886;-3.904;2023-07-29T02:39:56;21.20;97.00
51007;DHT22;37034;47.886;-3.904;2023-07-29T02:42:21;21.20;96.80
51007;DHT22;37034;47.886;-3.904;2023-07-29T02:44:47;21.10;96.80
51007;DHT22;37034;47.886;-3.904;2023-07-29T02:47:13;21.10;96.80
51007;DHT22;37034;47.886;-3.904;2023-07-29T02:49:38;21.10;96.90
51007;DHT22;37034;47.886;-3.904;2023-07-29T02:52:04;21.10;96.80
51007;DHT22;37034;47.886;-3.904;2023-07-29T02:54:30;21.10;96.90
51007;DHT22;37034;47.886;-3.904;2023-07-29T02:56:56;21.10;96.90
51007;DHT22;37034;47.886;-3.904;2023-07-29T02:59:21;21.10;96.80
51007;DHT22;37034;47.886;-3.904;2023-07-29T03:01:47;21.10;96.90
51007;DHT22;37034;47.886;-3.904;2023-07-29T03:04:13;21.10;96.90
51007;DHT22;37034;47.886;-3.904;2023-07-29T03:06:39;21.10;96.90
51007;DHT22;37034;47.886;-3.904;2023-07-29T03:09:04;21.10;96.90
51007;DHT22;37034;47.886;-3.904;2023-07-29T03:11:30;21.00;96.80
51007;DHT22;37034;47.886;-3.904;2023-07-29T03:13:56;21.10;96.80
51007;DHT22;37034;47.886;-3.904;2023-07-29T03:16:22;21.00;96.90
51007;DHT22;37034;47.886;-3.904;2023-07-29T03:18:48;21.00;96.80
51007;DHT22;37034;47.886;-3.904;2023-07-29T03:21:14;21.00;96.80
51007;DHT22;37034;47.886;-3.904;2023-07-29T03:23:40;21.00;96.80
51007;DHT22;37034;47.886;-3.904;2023-07-29T03:26:06;21.00;96.80
51007;DHT22;37034;47.886;-3.904;2023-07-29T03:28:37;21.00;96.70
51007;DHT22;37034;47.886;-3.904;2023-07-29T03:31:03;21.00;96.70
51007;DHT22;37034;47.886;-3.904;2023-07-29T03:33:29;21.00;96.70
51007;DHT22;37034;47.886;-3.904;2023-07-29T03:35:55;20.90;96.60
51007;DHT22;37034;47.886;-3.904;2023-07-29T03:38:21;20.90;96.60
51007;DHT22;37034;47.886;-3.904;2023-07-29T03:40:47;20.90;96.60
51007;DHT22;37034;47.886;-3.904;2023-07-29T03:43:12;20.90;96.70
51007;DHT22;37034;47.886;-3.904;2023-07-29T03:45:40;20.90;96.70
51007;DHT22;37034;47.886;-3.904;2023-07-29T03:48:06;20.80;96.70
51007;DHT22;37034;47.886;-3.904;2023-07-29T03:50:34;20.80;96.70
51007;DHT22;37034;47.886;-3.904;2023-07-29T03:53:03;20.80;96.60
51007;DHT22;37034;47.886;-3.904;2023-07-29T03:55:29;20.80;96.50
51007;DHT22;37034;47.886;-3.904;2023-07-29T03:57:57;20.60;96.20
51007;DHT22;37034;47.886;-3.904;2023-07-29T04:00:23;20.50;96.40
51007;DHT22;37034;47.886;-3.904;2023-07-29T04:02:48;20.50;96.50
51007;DHT22;37034;47.886;-3.904;2023-07-29T04:05:14;20.50;96.40
51007;DHT22;37034;47.886;-3.904;2023-07-29T04:07:40;20.40;96.50
51007;DHT22;37034;47.886;-3.904;2023-07-29T04:10:06;20.40;96.50
51007;DHT22;37034;47.886;-3.904;2023-07-29T04:12:32;20.40;96.50
51007;DHT22;37034;47.886;-3.904;2023-07-29T04:14:58;20.40;96.50
51007;DHT22;37034;47.886;-3.904;2023-07-29T04:17:23;20.30;96.50
51007;DHT22;37034;47.886;-3.904;2023-07-29T04:19:49;20.30;96.40
51007;DHT22;37034;47.886;-3.904;2023-07-29T04:22:16;20.30;96.50
51007;DHT22;37034;47.886;-3.904;2023-07-29T04:24:42;20.30;96.60
51007;DHT22;37034;47.886;-3.904;2023-07-29T04:27:07;20.30;96.60
51007;DHT22;37034;47.886;-3.904;2023-07-29T04:29:33;20.30;96.60
51007;DHT22;37034;47.886;-3.904;2023-07-29T04:32:01;20.40;96.50
51007;DHT22;37034;47.886;-3.904;2023-07-29T04:34:27;20.40;96.50
51007;DHT22;37034;47.886;-3.904;2023-07-29T04:36:52;20.30;96.40
51007;DHT22;37034;47.886;-3.904;2023-07-29T04:39:18;20.40;96.40
51007;DHT22;37034;47.886;-3.904;2023-07-29T04:41:44;20.40;96.40
51007;DHT22;37034;47.886;-3.904;2023-07-29T04:44:09;20.40;96.40
51007;DHT22;37034;47.886;-3.904;2023-07-29T04:46:36;20.40;96.40
51007;DHT22;37034;47.886;-3.904;2023-07-29T04:49:01;20.30;96.40
51007;DHT22;37034;47.886;-3.904;2023-07-29T04:51:28;20.30;96.40
51007;DHT22;37034;47.886;-3.904;2023-07-29T04:53:53;20.30;96.30
51007;DHT22;37034;47.886;-3.904;2023-07-29T04:56:19;20.30;96.40
51007;DHT22;37034;47.886;-3.904;2023-07-29T04:58:44;20.30;96.30
51007;DHT22;37034;47.886;-3.904;2023-07-29T05:01:10;20.30;96.30
51007;DHT22;37034;47.886;-3.904;2023-07-29T05:03:36;20.30;96.30
51007;DHT22;37034;47.886;-3.904;2023-07-29T05:06:02;20.30;96.30
51007;DHT22;37034;47.886;-3.904;2023-07-29T05:08:28;20.30;96.40
51007;DHT22;37034;47.886;-3.904;2023-07-29T05:10:54;20.30;96.20
51007;DHT22;37034;47.886;-3.904;2023-07-29T05:13:22;20.30;96.30
51007;DHT22;37034;47.886;-3.904;2023-07-29T05:15:48;20.20;96.30
51007;DHT22;37034;47.886;-3.904;2023-07-29T05:18:15;20.20;96.30
51007;DHT22;37034;47.886;-3.904;2023-07-29T05:20:41;20.30;96.40
51007;DHT22;37034;47.886;-3.904;2023-07-29T05:23:06;20.30;96.20
51007;DHT22;37034;47.886;-3.904;2023-07-29T05:25:32;20.20;96.30
51007;DHT22;37034;47.886;-3.904;2023-07-29T05:28:00;20.30;96.40
51007;DHT22;37034;47.886;-3.904;2023-07-29T05:30:26;20.30;96.40
51007;DHT22;37034;47.886;-3.904;2023-07-29T05:32:52;20.30;96.40
51007;DHT22;37034;47.886;-3.904;2023-07-29T05:35:18;20.30;96.50
51007;DHT22;37034;47.886;-3.904;2023-07-29T05:37:43;20.40;96.50
51007;DHT22;37034;47.886;-3.904;2023-07-29T05:40:09;20.40;96.40
51007;DHT22;37034;47.886;-3.904;2023-07-29T05:42:35;20.40;96.50
51007;DHT22;37034;47.886;-3.904;2023-07-29T05:45:01;20.40;96.50
51007;DHT22;37034;47.886;-3.904;2023-07-29T05:47:27;20.40;96.50
51007;DHT22;37034;47.886;-3.904;2023-07-29T05:49:52;20.40;96.50
51007;DHT22;37034;47.886;-3.904;2023-07-29T05:52:18;20.50;96.40
51007;DHT22;37034;47.886;-3.904;2023-07-29T05:54:44;20.40;96.30
51007;DHT22;37034;47.886;-3.904;2023-07-29T05:57:11;20.40;96.40
51007;DHT22;37034;47.886;-3.904;2023-07-29T05:59:37;20.40;96.40
51007;DHT22;37034;47.886;-3.904;2023-07-29T06:02:04;20.50;96.50
51007;DHT22;37034;47.886;-3.904;2023-07-29T06:04:29;20.50;96.40
51007;DHT22;37034;47.886;-3.904;2023-07-29T06:06:55;20.50;96.40
51007;DHT22;37034;47.886;-3.904;2023-07-29T06:09:21;20.60;96.50
51007;DHT22;37034;47.886;-3.904;2023-07-29T06:11:47;20.60;96.50
51007;DHT22;37034;47.886;-3.904;2023-07-29T06:14:13;20.60;96.40
51007;DHT22;37034;47.886;-3.904;2023-07-29T06:16:39;20.60;96.30
51007;DHT22;37034;47.886;-3.904;2023-07-29T06:19:04;20.70;96.50
51007;DHT22;37034;47.886;-3.904;2023-07-29T06:21:30;20.70;96.40
51007;DHT22;37034;47.886;-3.904;2023-07-29T06:23:56;20.70;96.40
51007;DHT22;37034;47.886;-3.904;2023-07-29T06:26:22;20.80;96.40
51007;DHT22;37034;47.886;-3.904;2023-07-29T06:28:47;20.80;96.40
51007;DHT22;37034;47.886;-3.904;2023-07-29T06:31:13;20.80;96.40
51007;DHT22;37034;47.886;-3.904;2023-07-29T06:33:39;20.80;96.40
51007;DHT22;37034;47.886;-3.904;2023-07-29T06:36:04;20.80;96.40
51007;DHT22;37034;47.886;-3.904;2023-07-29T06:38:30;20.90;96.70
51007;DHT22;37034;47.886;-3.904;2023-07-29T06:40:56;21.00;96.50
51007;DHT22;37034;47.886;-3.904;2023-07-29T06:43:22;21.10;96.40
51007;DHT22;37034;47.886;-3.904;2023-07-29T06:45:47;21.10;96.40
51007;DHT22;37034;47.886;-3.904;2023-07-29T06:48:13;21.20;96.30
51007;DHT22;37034;47.886;-3.904;2023-07-29T06:50:39;21.30;96.40
51007;DHT22;37034;47.886;-3.904;2023-07-29T06:53:04;21.40;96.50
51007;DHT22;37034;47.886;-3.904;2023-07-29T06:55:30;21.50;96.40
51007;DHT22;37034;47.886;-3.904;2023-07-29T06:57:56;21.50;96.20
51007;DHT22;37034;47.886;-3.904;2023-07-29T07:00:21;21.60;96.20
51007;DHT22;37034;47.886;-3.904;2023-07-29T07:02:47;21.70;96.10
51007;DHT22;37034;47.886;-3.904;2023-07-29T07:05:13;21.70;96.10
51007;DHT22;37034;47.886;-3.904;2023-07-29T07:07:38;21.80;96.10
51007;DHT22;37034;47.886;-3.904;2023-07-29T07:10:04;21.80;96.20
51007;DHT22;37034;47.886;-3.904;2023-07-29T07:12:30;21.90;96.10
51007;DHT22;37034;47.886;-3.904;2023-07-29T07:14:55;21.90;95.90
51007;DHT22;37034;47.886;-3.904;2023-07-29T07:17:21;22.00;95.90
51007;DHT22;37034;47.886;-3.904;2023-07-29T07:19:47;22.00;95.80
51007;DHT22;37034;47.886;-3.904;2023-07-29T07:22:12;22.00;95.70
51007;DHT22;37034;47.886;-3.904;2023-07-29T07:24:38;22.10;95.80
51007;DHT22;37034;47.886;-3.904;2023-07-29T07:27:04;22.10;95.70
51007;DHT22;37034;47.886;-3.904;2023-07-29T07:29:29;22.10;95.50
51007;DHT22;37034;47.886;-3.904;2023-07-29T07:31:56;22.10;95.60
51007;DHT22;37034;47.886;-3.904;2023-07-29T07:34:22;22.20;95.80
51007;DHT22;37034;47.886;-3.904;2023-07-29T07:36:48;22.30;95.60
51007;DHT22;37034;47.886;-3.904;2023-07-29T07:39:13;22.40;95.70
51007;DHT22;37034;47.886;-3.904;2023-07-29T07:41:40;22.50;95.70
51007;DHT22;37034;47.886;-3.904;2023-07-29T07:44:05;22.50;95.00
51007;DHT22;37034;47.886;-3.904;2023-07-29T07:46:31;22.50;95.20
51007;DHT22;37034;47.886;-3.904;2023-07-29T07:48:57;22.60;95.30
51007;DHT22;37034;47.886;-3.904;2023-07-29T07:51:22;22.60;95.20
51007;DHT22;37034;47.886;-3.904;2023-07-29T07:53:48;22.60;95.40
51007;DHT22;37034;47.886;-3.904;2023-07-29T07:56:14;22.60;95.20
51007;DHT22;37034;47.886;-3.904;2023-07-29T07:58:41;22.70;95.10
51007;DHT22;37034;47.886;-3.904;2023-07-29T08:01:07;22.80;95.10
51007;DHT22;37034;47.886;-3.904;2023-07-29T08:03:34;22.90;95.10
51007;DHT22;37034;47.886;-3.904;2023-07-29T08:05:59;22.90;94.90
51007;DHT22;37034;47.886;-3.904;2023-07-29T08:08:26;23.10;94.80
51007;DHT22;37034;47.886;-3.904;2023-07-29T08:10:56;23.20;94.90
51007;DHT22;37034;47.886;-3.904;2023-07-29T08:13:23;23.30;94.90
51007;DHT22;37034;47.886;-3.904;2023-07-29T08:15:50;23.40;94.90
51007;DHT22;37034;47.886;-3.904;2023-07-29T08:18:17;23.50;94.80
51007;DHT22;37034;47.886;-3.904;2023-07-29T08:20:56;23.50;94.40
51007;DHT22;37034;47.886;-3.904;2023-07-29T08:23:24;23.70;93.80
51007;DHT22;37034;47.886;-3.904;2023-07-29T08:25:55;23.70;93.90
51007;DHT22;37034;47.886;-3.904;2023-07-29T08:28:22;23.70;93.80
51007;DHT22;37034;47.886;-3.904;2023-07-29T08:30:48;23.60;94.00
51007;DHT22;37034;47.886;-3.904;2023-07-29T08:33:14;23.70;94.00
51007;DHT22;37034;47.886;-3.904;2023-07-29T08:35:40;23.70;93.70
51007;DHT22;37034;47.886;-3.904;2023-07-29T08:38:05;23.80;93.50
51007;DHT22;37034;47.886;-3.904;2023-07-29T08:40:32;23.80;93.50
51007;DHT22;37034;47.886;-3.904;2023-07-29T08:43:05;23.80;93.50
51007;DHT22;37034;47.886;-3.904;2023-07-29T08:45:35;23.90;93.60
51007;DHT22;37034;47.886;-3.904;2023-07-29T08:48:02;23.90;93.70
51007;DHT22;37034;47.886;-3.904;2023-07-29T08:50:33;24.00;93.60
51007;DHT22;37034;47.886;-3.904;2023-07-29T08:53:00;24.00;93.40
51007;DHT22;37034;47.886;-3.904;2023-07-29T08:55:29;24.10;93.50
51007;DHT22;37034;47.886;-3.904;2023-07-29T08:57:55;24.10;93.60
51007;DHT22;37034;47.886;-3.904;2023-07-29T09:00:21;24.20;93.50
51007;DHT22;37034;47.886;-3.904;2023-07-29T09:02:48;24.20;93.40
51007;DHT22;37034;47.886;-3.904;2023-07-29T09:05:13;24.20;93.20
51007;DHT22;37034;47.886;-3.904;2023-07-29T09:07:40;24.30;93.10
51007;DHT22;37034;47.886;-3.904;2023-07-29T09:10:09;24.30;92.90
51007;DHT22;37034;47.886;-3.904;2023-07-29T09:12:36;24.40;92.90
51007;DHT22;37034;47.886;-3.904;2023-07-29T09:15:02;24.40;93.00
51007;DHT22;37034;47.886;-3.904;2023-07-29T09:17:33;24.40;92.70
51007;DHT22;37034;47.886;-3.904;2023-07-29T09:19:59;24.50;92.70
51007;DHT22;37034;47.886;-3.904;2023-07-29T09:22:27;24.50;92.80
51007;DHT22;37034;47.886;-3.904;2023-07-29T09:24:53;24.60;92.80
51007;DHT22;37034;47.886;-3.904;2023-07-29T09:27:26;24.60;92.60
51007;DHT22;37034;47.886;-3.904;2023-07-29T09:29:53;24.60;92.70
51007;DHT22;37034;47.886;-3.904;2023-07-29T09:32:21;24.70;92.70
51007;DHT22;37034;47.886;-3.904;2023-07-29T09:34:47;24.80;92.40
51007;DHT22;37034;47.886;-3.904;2023-07-29T09:37:23;25.00;92.60
51007;DHT22;37034;47.886;-3.904;2023-07-29T09:39:49;25.00;92.40
51007;DHT22;37034;47.886;-3.904;2023-07-29T09:42:19;25.10;92.10
51007;DHT22;37034;47.886;-3.904;2023-07-29T09:44:46;25.00;92.10
51007;DHT22;37034;47.886;-3.904;2023-07-29T09:47:21;25.10;92.30
51007;DHT22;37034;47.886;-3.904;2023-07-29T09:49:47;25.10;92.10
51007;DHT22;37034;47.886;-3.904;2023-07-29T09:52:18;25.10;91.80
51007;DHT22;37034;47.886;-3.904;2023-07-29T09:54:44;25.00;92.00
51007;DHT22;37034;47.886;-3.904;2023-07-29T09:57:15;25.00;92.00
51007;DHT22;37034;47.886;-3.904;2023-07-29T09:59:41;25.00;91.90
51007;DHT22;37034;47.886;-3.904;2023-07-29T10:02:16;25.10;92.10
51007;DHT22;37034;47.886;-3.904;2023-07-29T10:04:42;25.20;91.80
51007;DHT22;37034;47.886;-3.904;2023-07-29T10:07:11;25.30;91.70
51007;DHT22;37034;47.886;-3.904;2023-07-29T10:09:38;25.30;91.90
51007;DHT22;37034;47.886;-3.904;2023-07-29T10:12:06;25.40;92.20
51007;DHT22;37034;47.886;-3.904;2023-07-29T10:14:32;25.60;92.00
51007;DHT22;37034;47.886;-3.904;2023-07-29T10:16:58;25.60;92.00
51007;DHT22;37034;47.886;-3.904;2023-07-29T10:19:25;25.80;91.90
51007;DHT22;37034;47.886;-3.904;2023-07-29T10:21:54;25.90;91.80
51007;DHT22;37034;47.886;-3.904;2023-07-29T10:24:25;26.00;91.60
51007;DHT22;37034;47.886;-3.904;2023-07-29T10:26:57;26.00;91.30
51007;DHT22;37034;47.886;-3.904;2023-07-29T10:29:24;25.90;90.70
51007;DHT22;37034;47.886;-3.904;2023-07-29T10:31:54;25.80;90.80
51007;DHT22;37034;47.886;-3.904;2023-07-29T10:34:23;25.80;90.90
51007;DHT22;37034;47.886;-3.904;2023-07-29T10:36:50;25.70;91.00
51007;DHT22;37034;47.886;-3.904;2023-07-29T10:39:16;25.70;91.20
51007;DHT22;37034;47.886;-3.904;2023-07-29T10:47:15;25.60;90.80
51007;DHT22;37034;47.886;-3.904;2023-07-29T10:49:45;25.60;91.00
51007;DHT22;37034;47.886;-3.904;2023-07-29T10:52:15;25.60;91.30
51007;DHT22;37034;47.886;-3.904;2023-07-29T10:54:48;25.60;90.90
51007;DHT22;37034;47.886;-3.904;2023-07-29T10:57:15;25.50;90.90
51007;DHT22;37034;47.886;-3.904;2023-07-29T10:59:41;25.60;91.10
51007;DHT22;37034;47.886;-3.904;2023-07-29T11:02:20;25.70;91.20
51007;DHT22;37034;47.886;-3.904;2023-07-29T11:04:47;25.70;91.20
51007;DHT22;37034;47.886;-3.904;2023-07-29T11:09:51;25.80;90.70
51007;DHT22;37034;47.886;-3.904;2023-07-29T11:17:46;25.90;90.60
51007;DHT22;37034;47.886;-3.904;2023-07-29T11:20:13;25.80;90.60
51007;DHT22;37034;47.886;-3.904;2023-07-29T11:22:39;25.80;90.50
51007;DHT22;37034;47.886;-3.904;2023-07-29T11:25:07;25.80;90.60
51007;DHT22;37034;47.886;-3.904;2023-07-29T11:27:32;25.70;90.20
51007;DHT22;37034;47.886;-3.904;2023-07-29T11:30:03;25.60;90.30
51007;DHT22;37034;47.886;-3.904;2023-07-29T11:32:34;25.50;90.40
51007;DHT22;37034;47.886;-3.904;2023-07-29T11:35:05;25.40;90.40
51007;DHT22;37034;47.886;-3.904;2023-07-29T11:37:32;25.40;90.50
51007;DHT22;37034;47.886;-3.904;2023-07-29T11:40:01;25.20;90.40
51007;DHT22;37034;47.886;-3.904;2023-07-29T11:42:28;25.20;90.60
51007;DHT22;37034;47.886;-3.904;2023-07-29T11:44:57;25.20;90.70
51007;DHT22;37034;47.886;-3.904;2023-07-29T11:47:23;25.10;90.80
51007;DHT22;37034;47.886;-3.904;2023-07-29T11:49:49;25.10;90.70
51007;DHT22;37034;47.886;-3.904;2023-07-29T11:52:15;25.10;90.90
51007;DHT22;37034;47.886;-3.904;2023-07-29T11:54:44;25.10;90.90
51007;DHT22;37034;47.886;-3.904;2023-07-29T11:57:10;25.20;90.70
51007;DHT22;37034;47.886;-3.904;2023-07-29T11:59:37;25.10;90.40
51007;DHT22;37034;47.886;-3.904;2023-07-29T12:02:17;25.00;90.30
51007;DHT22;37034;47.886;-3.904;2023-07-29T12:04:44;24.90;90.40
51007;DHT22;37034;47.886;-3.904;2023-07-29T12:07:10;24.70;90.30
51007;DHT22;37034;47.886;-3.904;2023-07-29T12:09:38;24.60;90.40
51007;DHT22;37034;47.886;-3.904;2023-07-29T12:12:05;24.50;90.50
51007;DHT22;37034;47.886;-3.904;2023-07-29T12:14:32;24.20;90.10
51007;DHT22;37034;47.886;-3.904;2023-07-29T12:17:00;23.90;90.10
51007;DHT22;37034;47.886;-3.904;2023-07-29T12:19:35;23.20;90.70
51007;DHT22;37034;47.886;-3.904;2023-07-29T12:22:03;23.00;90.90
51007;DHT22;37034;47.886;-3.904;2023-07-29T12:24:33;23.00;91.00
51007;DHT22;37034;47.886;-3.904;2023-07-29T12:26:59;22.60;91.20
51007;DHT22;37034;47.886;-3.904;2023-07-29T12:29:25;22.60;91.70
51007;DHT22;37034;47.886;-3.904;2023-07-29T12:32:03;22.80;91.90
51007;DHT22;37034;47.886;-3.904;2023-07-29T12:34:30;22.70;91.90
51007;DHT22;37034;47.886;-3.904;2023-07-29T12:36:58;22.60;91.60
51007;DHT22;37034;47.886;-3.904;2023-07-29T12:39:31;22.60;91.60
51007;DHT22;37034;47.886;-3.904;2023-07-29T12:41:58;22.30;91.70
51007;DHT22;37034;47.886;-3.904;2023-07-29T12:44:26;22.10;92.20
51007;DHT22;37034;47.886;-3.904;2023-07-29T12:46:52;22.00;92.30
51007;DHT22;37034;47.886;-3.904;2023-07-29T12:49:18;22.10;92.70
51007;DHT22;37034;47.886;-3.904;2023-07-29T12:51:45;22.30;92.60
51007;DHT22;37034;47.886;-3.904;2023-07-29T12:54:10;22.40;92.40
51007;DHT22;37034;47.886;-3.904;2023-07-29T12:56:36;22.40;92.50
51007;DHT22;37034;47.886;-3.904;2023-07-29T12:59:02;22.30;92.10
51007;DHT22;37034;47.886;-3.904;2023-07-29T13:01:29;22.20;92.50
51007;DHT22;37034;47.886;-3.904;2023-07-29T13:03:55;22.20;92.60
51007;DHT22;37034;47.886;-3.904;2023-07-29T13:06:21;22.10;92.80
51007;DHT22;37034;47.886;-3.904;2023-07-29T13:08:47;22.10;93.10
51007;DHT22;37034;47.886;-3.904;2023-07-29T13:11:14;22.10;93.30
51007;DHT22;37034;47.886;-3.904;2023-07-29T13:13:40;22.40;93.40
51007;DHT22;37034;47.886;-3.904;2023-07-29T13:16:06;22.40;92.80
51007;DHT22;37034;47.886;-3.904;2023-07-29T13:18:32;22.30;92.80
51007;DHT22;37034;47.886;-3.904;2023-07-29T13:20:58;22.20;92.90
51007;DHT22;37034;47.886;-3.904;2023-07-29T13:23:24;22.20;92.80
51007;DHT22;37034;47.886;-3.904;2023-07-29T13:25:49;22.20;93.00
51007;DHT22;37034;47.886;-3.904;2023-07-29T13:28:16;22.30;92.90
51007;DHT22;37034;47.886;-3.904;2023-07-29T13:30:41;22.30;92.90
51007;DHT22;37034;47.886;-3.904;2023-07-29T13:33:08;22.60;93.70
51007;DHT22;37034;47.886;-3.904;2023-07-29T13:35:33;22.90;93.50
51007;DHT22;37034;47.886;-3.904;2023-07-29T13:38:00;23.10;93.20
51007;DHT22;37034;47.886;-3.904;2023-07-29T13:40:26;23.10;92.60
51007;DHT22;37034;47.886;-3.904;2023-07-29T13:42:52;23.00;92.40
51007;DHT22;37034;47.886;-3.904;2023-07-29T13:45:18;23.00;92.50
51007;DHT22;37034;47.886;-3.904;2023-07-29T13:47:44;22.90;92.50
51007;DHT22;37034;47.886;-3.904;2023-07-29T13:50:09;22.70;92.30
51007;DHT22;37034;47.886;-3.904;2023-07-29T13:52:36;22.50;92.50
51007;DHT22;37034;47.886;-3.904;2023-07-29T13:55:03;22.60;92.80
51007;DHT22;37034;47.886;-3.904;2023-07-29T13:57:28;22.70;92.80
51007;DHT22;37034;47.886;-3.904;2023-07-29T13:59:54;22.70;92.50
51007;DHT22;37034;47.886;-3.904;2023-07-29T14:02:20;22.60;92.80
51007;DHT22;37034;47.886;-3.904;2023-07-29T14:04:45;22.80;93.00
51007;DHT22;37034;47.886;-3.904;2023-07-29T14:07:11;22.90;92.70
51007;DHT22;37034;47.886;-3.904;2023-07-29T14:09:37;23.00;93.10
51007;DHT22;37034;47.886;-3.904;2023-07-29T14:12:04;23.10;92.50
51007;DHT22;37034;47.886;-3.904;2023-07-29T14:14:30;23.10;93.10
51007;DHT22;37034;47.886;-3.904;2023-07-29T14:16:55;23.40;93.20
51007;DHT22;37034;47.886;-3.904;2023-07-29T14:19:21;23.40;92.20
51007;DHT22;37034;47.886;-3.904;2023-07-29T14:21:47;23.40;92.30
51007;DHT22;37034;47.886;-3.904;2023-07-29T14:24:13;23.40;91.90
51007;DHT22;37034;47.886;-3.904;2023-07-29T14:26:38;23.40;92.20
51007;DHT22;37034;47.886;-3.904;2023-07-29T14:29:04;23.10;91.50
51007;DHT22;37034;47.886;-3.904;2023-07-29T14:31:30;22.90;91.50
51007;DHT22;37034;47.886;-3.904;2023-07-29T14:33:55;22.70;91.90
51007;DHT22;37034;47.886;-3.904;2023-07-29T14:36:21;22.70;92.20
51007;DHT22;37034;47.886;-3.904;2023-07-29T14:38:46;23.00;92.80
51007;DHT22;37034;47.886;-3.904;2023-07-29T14:41:12;23.20;92.50
51007;DHT22;37034;47.886;-3.904;2023-07-29T14:43:38;23.20;92.10
51007;DHT22;37034;47.886;-3.904;2023-07-29T14:46:05;23.10;91.60
51007;DHT22;37034;47.886;-3.904;2023-07-29T14:48:31;23.00;91.60
51007;DHT22;37034;47.886;-3.904;2023-07-29T14:50:56;23.00;91.90
51007;DHT22;37034;47.886;-3.904;2023-07-29T14:53:22;23.00;92.10
51007;DHT22;37034;47.886;-3.904;2023-07-29T14:55:48;23.10;91.80
51007;DHT22;37034;47.886;-3.904;2023-07-29T14:58:14;23.20;91.70
51007;DHT22;37034;47.886;-3.904;2023-07-29T15:00:39;23.30;91.60
51007;DHT22;37034;47.886;-3.904;2023-07-29T15:03:05;23.40;91.50
51007;DHT22;37034;47.886;-3.904;2023-07-29T15:05:32;23.30;91.60
51007;DHT22;37034;47.886;-3.904;2023-07-29T15:07:58;23.20;91.90
51007;DHT22;37034;47.886;-3.904;2023-07-29T15:10:24;23.30;92.10
51007;DHT22;37034;47.886;-3.904;2023-07-29T15:12:49;23.20;91.20
51007;DHT22;37034;47.886;-3.904;2023-07-29T15:15:15;23.10;90.50
51007;DHT22;37034;47.886;-3.904;2023-07-29T15:17:41;22.90;90.30
51007;DHT22;37034;47.886;-3.904;2023-07-29T15:20:06;22.90;90.00
51007;DHT22;37034;47.886;-3.904;2023-07-29T15:22:33;22.80;90.30
51007;DHT22;37034;47.886;-3.904;2023-07-29T15:24:58;22.70;90.40
51007;DHT22;37034;47.886;-3.904;2023-07-29T15:27:30;22.80;90.20
51007;DHT22;37034;47.886;-3.904;2023-07-29T15:29:56;22.60;89.10